createdAt,value
2018-05-05T00:00:53.407Z,16.44
2018-05-05T00:02:29.952Z,16.26
2018-05-05T00:04:06.391Z,16.23
2018-05-05T00:05:43.475Z,16.41
2018-05-05T00:07:20.207Z,16.44
2018-05-05T00:08:57.528Z,16.20
2018-05-05T00:10:33.838Z,16.17
2018-05-05T00:12:10.969Z,16.01
2018-05-05T00:13:48.570Z,15.95
2018-05-05T00:15:27.038Z,15.77
2018-05-05T00:17:06.022Z,15.80
2018-05-05T00:18:42.549Z,15.46
2018-05-05T00:20:19.262Z,15.38
2018-05-05T00:21:55.969Z,15.28
2018-05-05T00:23:33.330Z,15.35
2018-05-05T00:25:10.653Z,15.29
2018-05-05T00:26:48.286Z,15.12
2018-05-05T00:28:24.579Z,14.94
2018-05-05T00:30:01.514Z,14.93
2018-05-05T00:31:39.790Z,14.91
2018-05-05T00:33:17.323Z,15.08
2018-05-05T00:34:53.686Z,14.99
2018-05-05T00:36:30.084Z,15.39
2018-05-05T00:38:07.116Z,15.44
2018-05-05T00:39:43.905Z,15.35
2018-05-05T00:41:20.209Z,15.33
2018-05-05T00:42:56.674Z,15.31
2018-05-05T00:44:32.931Z,15.11
2018-05-05T00:46:10.821Z,15.17
2018-05-05T00:47:47.147Z,15.44
2018-05-05T00:49:23.373Z,15.19
2018-05-05T00:50:59.909Z,15.00
2018-05-05T00:52:39.913Z,14.97
2018-05-05T00:54:29.551Z,14.90
2018-05-05T00:56:06.653Z,15.07
2018-05-05T00:57:42.979Z,15.17
2018-05-05T00:59:19.262Z,15.40
2018-05-05T01:00:56.743Z,15.51
2018-05-05T01:02:33.062Z,15.37
2018-05-05T01:04:10.180Z,15.08
2018-05-05T01:05:47.315Z,14.89
2018-05-05T01:07:23.623Z,15.21
2018-05-05T01:09:00.722Z,15.45
2018-05-05T01:10:38.149Z,15.46
2018-05-05T01:12:14.497Z,15.60
2018-05-05T01:13:51.602Z,15.38
2018-05-05T01:15:29.937Z,15.61
2018-05-05T01:17:07.317Z,15.64
2018-05-05T01:18:43.610Z,15.81
2018-05-05T01:20:19.920Z,15.92
2018-05-05T01:21:57.018Z,15.93
2018-05-05T01:23:34.128Z,15.63
2018-05-05T01:25:14.668Z,15.67
2018-05-05T01:26:51.028Z,15.63
2018-05-05T01:28:28.159Z,15.64
2018-05-05T01:30:07.192Z,15.73
2018-05-05T01:31:43.858Z,15.86
2018-05-05T01:33:20.164Z,15.92
2018-05-05T01:34:57.283Z,16.03
2018-05-05T01:36:34.137Z,15.77
2018-05-05T01:38:10.920Z,15.71
2018-05-05T01:39:47.198Z,15.85
2018-05-05T01:41:23.466Z,15.80
2018-05-05T01:43:00.943Z,15.79
2018-05-05T01:44:37.248Z,15.81
2018-05-05T01:46:14.401Z,15.84
2018-05-05T01:47:51.559Z,15.69
2018-05-05T01:49:28.340Z,15.76
2018-05-05T01:51:04.655Z,15.75
2018-05-05T01:52:41.752Z,15.77
2018-05-05T01:54:18.026Z,15.72
2018-05-05T01:55:54.775Z,15.78
2018-05-05T01:57:31.058Z,15.71
2018-05-05T01:59:07.289Z,15.81
2018-05-05T02:00:43.960Z,15.81
2018-05-05T02:02:20.704Z,15.85
2018-05-05T02:03:57.920Z,15.87
2018-05-05T02:05:34.265Z,15.55
2018-05-05T02:07:12.009Z,15.60
2018-05-05T02:08:48.361Z,15.61
2018-05-05T02:10:25.445Z,15.35
2018-05-05T02:12:01.728Z,15.20
2018-05-05T02:13:37.989Z,15.07
2018-05-05T02:15:18.149Z,14.57
2018-05-05T02:16:54.891Z,14.27
2018-05-05T02:18:31.229Z,14.30
2018-05-05T02:20:07.518Z,14.50
2018-05-05T02:21:44.371Z,14.34
2018-05-05T02:23:20.719Z,14.05
2018-05-05T02:24:56.911Z,13.75
2018-05-05T02:26:33.148Z,13.85
2018-05-05T02:28:09.953Z,13.76
2018-05-05T02:29:47.287Z,13.90
2018-05-05T02:31:23.833Z,13.54
2018-05-05T02:33:00.454Z,13.54
2018-05-05T02:34:38.508Z,13.42
2018-05-05T02:36:15.119Z,13.52
2018-05-05T02:37:51.711Z,13.63
2018-05-05T02:39:28.097Z,13.48
2018-05-05T02:41:05.251Z,13.39
2018-05-05T02:42:42.210Z,13.19
2018-05-05T02:44:18.774Z,13.41
2018-05-05T02:45:55.625Z,13.52
2018-05-05T02:47:32.792Z,13.44
2018-05-05T02:49:09.197Z,13.41
2018-05-05T02:50:45.937Z,13.75
2018-05-05T02:52:22.561Z,13.79
2018-05-05T02:53:59.638Z,13.87
2018-05-05T02:55:36.332Z,13.70
2018-05-05T02:57:14.012Z,13.97
2018-05-05T02:58:51.406Z,14.17
2018-05-05T03:00:30.600Z,14.15
2018-05-05T03:02:06.988Z,14.34
2018-05-05T03:03:43.861Z,14.09
2018-05-05T03:05:20.705Z,14.07
2018-05-05T03:06:57.528Z,13.82
2018-05-05T03:08:34.546Z,13.98
2018-05-05T03:10:10.906Z,14.08
2018-05-05T03:11:47.142Z,14.09
2018-05-05T03:13:23.788Z,13.99
2018-05-05T03:15:00.751Z,13.99
2018-05-05T03:16:37.280Z,14.16
2018-05-05T03:18:13.553Z,13.74
2018-05-05T03:19:50.327Z,13.75
2018-05-05T03:21:26.851Z,13.75
2018-05-05T03:23:03.164Z,13.96
2018-05-05T03:24:39.379Z,14.16
2018-05-05T03:26:16.166Z,13.68
2018-05-05T03:27:52.435Z,13.72
2018-05-05T03:29:28.735Z,13.66
2018-05-05T03:31:05.397Z,13.71
2018-05-05T03:32:42.026Z,13.71
2018-05-05T03:34:18.266Z,13.73
2018-05-05T03:35:54.545Z,13.63
2018-05-05T03:37:30.856Z,13.45
2018-05-05T03:39:08.305Z,12.99
2018-05-05T03:40:44.649Z,12.91
2018-05-05T03:42:20.896Z,13.03
2018-05-05T03:43:57.133Z,13.37
2018-05-05T03:45:38.568Z,13.19
2018-05-05T03:47:14.786Z,13.40
2018-05-05T03:48:50.984Z,13.51
2018-05-05T03:50:27.498Z,13.07
2018-05-05T03:52:04.132Z,13.01
2018-05-05T03:53:40.431Z,13.10
2018-05-05T03:55:16.687Z,12.94
2018-05-05T03:56:52.922Z,12.88
2018-05-05T03:58:30.634Z,12.75
2018-05-05T04:00:27.023Z,13.03
2018-05-05T04:04:19.712Z,13.24
2018-05-05T04:05:56.231Z,13.54
2018-05-05T04:07:32.531Z,13.59
2018-05-05T04:09:09.614Z,13.42
2018-05-05T04:10:46.796Z,13.19
2018-05-05T04:12:23.870Z,13.42
2018-05-05T04:14:00.120Z,13.28
2018-05-05T04:15:37.580Z,13.31
2018-05-05T04:17:14.521Z,13.74
2018-05-05T04:18:51.560Z,13.72
2018-05-05T04:20:27.907Z,13.80
2018-05-05T04:22:04.329Z,13.81
2018-05-05T04:23:41.853Z,13.91
2018-05-05T04:25:18.148Z,14.34
2018-05-05T04:26:54.373Z,14.36
2018-05-05T04:28:30.630Z,14.81
2018-05-05T04:30:06.854Z,15.13
2018-05-05T04:31:45.107Z,15.04
2018-05-05T04:33:21.654Z,15.07
2018-05-05T04:34:57.888Z,14.81
2018-05-05T04:36:34.648Z,14.31
2018-05-05T04:38:11.707Z,14.26
2018-05-05T04:39:48.077Z,14.30
2018-05-05T04:41:24.304Z,14.11
2018-05-05T04:43:01.168Z,14.30
2018-05-05T04:44:37.476Z,14.61
2018-05-05T04:46:14.774Z,14.40
2018-05-05T04:47:51.822Z,14.45
2018-05-05T04:49:28.663Z,14.80
2018-05-05T04:51:04.897Z,15.36
2018-05-05T04:52:41.188Z,15.65
2018-05-05T04:54:19.031Z,15.86
2018-05-05T04:55:56.775Z,15.54
2018-05-05T04:57:33.065Z,15.47
2018-05-05T04:59:09.314Z,15.60
2018-05-05T05:00:46.380Z,15.63
2018-05-05T05:02:23.318Z,15.25
2018-05-05T05:04:00.460Z,15.58
2018-05-05T05:05:36.814Z,15.61
2018-05-05T05:07:13.397Z,15.62
2018-05-05T05:08:50.367Z,15.49
2018-05-05T05:10:28.208Z,15.85
2018-05-05T05:12:05.216Z,15.93
2018-05-05T05:13:41.778Z,15.53
2018-05-05T05:15:34.236Z,15.40
2018-05-05T05:17:11.727Z,15.44
2018-05-05T05:18:49.098Z,15.64
2018-05-05T05:20:25.672Z,16.08
2018-05-05T05:22:05.316Z,16.34
2018-05-05T05:23:41.524Z,16.79
2018-05-05T05:25:18.377Z,17.10
2018-05-05T05:26:54.712Z,17.41
2018-05-05T05:28:31.416Z,16.96
2018-05-05T05:30:08.584Z,16.53
2018-05-05T05:31:45.150Z,16.33
2018-05-05T05:33:21.481Z,16.54
2018-05-05T05:34:58.138Z,16.77
2018-05-05T05:36:34.772Z,17.08
2018-05-05T05:38:11.046Z,17.40
2018-05-05T05:39:48.240Z,17.40
2018-05-05T05:41:25.327Z,17.26
2018-05-05T05:43:02.236Z,17.38
2018-05-05T05:44:38.802Z,16.72
2018-05-05T05:46:15.217Z,16.82
2018-05-05T05:47:51.882Z,17.14
2018-05-05T05:49:28.304Z,17.55
2018-05-05T05:51:04.680Z,18.13
2018-05-05T05:52:40.972Z,17.81
2018-05-05T05:54:18.452Z,17.81
2018-05-05T05:55:55.528Z,18.20
2018-05-05T05:57:32.692Z,18.13
2018-05-05T05:59:08.944Z,18.62
2018-05-05T06:00:47.185Z,18.62
2018-05-05T06:02:23.526Z,18.11
2018-05-05T06:04:00.561Z,17.64
2018-05-05T06:05:36.839Z,17.58
2018-05-05T06:07:13.464Z,18.14
2018-05-05T06:08:49.730Z,18.04
2018-05-05T06:10:26.212Z,17.85
2018-05-05T06:12:02.568Z,17.65
2018-05-05T06:13:39.321Z,17.63
2018-05-05T06:15:17.093Z,18.08
2018-05-05T06:16:53.556Z,18.25
2018-05-05T06:18:29.781Z,17.75
2018-05-05T06:20:06.761Z,17.82
2018-05-05T06:21:43.314Z,18.11
2018-05-05T06:23:19.518Z,18.41
2018-05-05T06:24:55.780Z,17.97
2018-05-05T06:26:32.412Z,17.78
2018-05-05T06:28:08.718Z,17.79
2018-05-05T06:29:47.241Z,17.77
2018-05-05T06:31:25.205Z,17.87
2018-05-05T06:33:02.339Z,18.27
2018-05-05T06:34:39.768Z,18.15
2018-05-05T06:36:16.122Z,17.94
2018-05-05T06:37:55.945Z,18.23
2018-05-05T06:39:32.590Z,17.92
2018-05-05T06:41:09.121Z,17.71
2018-05-05T06:42:45.437Z,18.21
2018-05-05T06:44:22.629Z,18.15
2018-05-05T06:45:59.524Z,17.95
2018-05-05T06:47:35.931Z,18.09
2018-05-05T06:49:12.661Z,18.36
2018-05-05T06:50:49.798Z,18.51
2018-05-05T06:52:26.546Z,18.50
2018-05-05T06:54:03.891Z,18.48
2018-05-05T06:55:42.241Z,18.46
2018-05-05T06:57:19.184Z,18.29
2018-05-05T06:58:56.837Z,18.10
2018-05-05T07:00:33.478Z,17.97
2018-05-05T07:02:12.050Z,18.23
2018-05-05T07:03:48.526Z,18.11
2018-05-05T07:05:26.125Z,18.23
2018-05-05T07:07:09.805Z,18.58
2018-05-05T07:08:49.226Z,19.05
2018-05-05T07:10:27.383Z,19.06
2018-05-05T07:12:05.965Z,18.89
2018-05-05T07:13:42.429Z,19.45
2018-05-05T07:15:19.702Z,19.35
2018-05-05T07:16:59.627Z,19.55
2018-05-05T07:18:38.234Z,19.53
2018-05-05T07:20:14.490Z,19.58
2018-05-05T07:21:52.188Z,19.83
2018-05-05T07:23:30.050Z,20.32
2018-05-05T07:25:08.707Z,20.56
2018-05-05T07:26:44.996Z,20.92
2018-05-05T07:28:21.852Z,20.38
2018-05-05T07:29:59.352Z,20.11
2018-05-05T07:31:35.706Z,20.62
2018-05-05T07:33:17.653Z,20.04
2018-05-05T07:34:55.629Z,20.07
2018-05-05T07:36:32.177Z,20.14
2018-05-05T07:38:08.377Z,20.48
2018-05-05T07:39:48.582Z,21.00
2018-05-05T07:41:25.941Z,21.10
2018-05-05T07:43:03.374Z,21.44
2018-05-05T07:44:40.899Z,21.36
2018-05-05T07:46:18.458Z,21.06
2018-05-05T07:47:54.861Z,20.90
2018-05-05T07:49:31.700Z,21.19
2018-05-05T07:51:08.160Z,21.30
2018-05-05T07:52:45.992Z,21.37
2018-05-05T07:54:22.443Z,21.36
2018-05-05T07:55:59.808Z,21.45
2018-05-05T07:57:36.229Z,21.23
2018-05-05T07:59:12.571Z,21.05
2018-05-05T08:00:49.458Z,20.82
2018-05-05T08:02:26.012Z,20.59
2018-05-05T08:04:03.920Z,20.41
2018-05-05T08:05:40.314Z,20.40
2018-05-05T08:07:16.586Z,20.24
2018-05-05T08:08:53.371Z,20.13
2018-05-05T08:10:29.855Z,20.13
2018-05-05T08:12:06.941Z,20.03
2018-05-05T08:13:44.275Z,20.21
2018-05-05T08:15:21.254Z,20.37
2018-05-05T08:16:59.039Z,20.31
2018-05-05T08:18:35.370Z,20.44
2018-05-05T08:20:13.219Z,20.44
2018-05-05T08:21:49.727Z,20.02
2018-05-05T08:23:26.118Z,19.81
2018-05-05T08:25:03.385Z,19.97
2018-05-05T08:26:39.797Z,20.05
2018-05-05T08:28:17.398Z,20.23
2018-05-05T08:29:53.900Z,20.39
2018-05-05T08:31:30.574Z,20.53
2018-05-05T08:33:07.638Z,20.62
2018-05-05T08:34:44.547Z,20.59
2018-05-05T08:36:21.424Z,20.63
2018-05-05T08:37:57.733Z,20.76
2018-05-05T08:39:34.994Z,20.47
2018-05-05T08:41:11.795Z,20.46
2018-05-05T08:42:48.154Z,20.52
2018-05-05T08:44:25.232Z,20.60
2018-05-05T08:46:01.785Z,20.56
2018-05-05T08:47:38.584Z,20.53
2018-05-05T08:49:15.675Z,20.56
2018-05-05T08:50:52.807Z,20.57
2018-05-05T08:52:29.134Z,20.41
2018-05-05T08:54:05.802Z,20.37
2018-05-05T08:55:42.305Z,20.40
2018-05-05T08:57:18.623Z,20.42
2018-05-05T08:58:55.122Z,20.45
2018-05-05T09:00:32.155Z,20.51
2018-05-05T09:02:09.554Z,20.66
2018-05-05T09:03:46.072Z,20.57
2018-05-05T09:05:22.461Z,20.68
2018-05-05T09:06:59.297Z,20.79
2018-05-05T09:08:35.588Z,21.02
2018-05-05T09:10:11.857Z,21.21
2018-05-05T09:11:48.299Z,21.13
2018-05-05T09:13:25.852Z,20.99
2018-05-05T09:15:02.236Z,20.78
2018-05-05T09:16:39.967Z,20.49
2018-05-05T09:18:16.502Z,20.44
2018-05-05T09:19:53.501Z,20.41
2018-05-05T09:21:30.620Z,20.51
2018-05-05T09:23:07.852Z,20.49
2018-05-05T09:24:44.416Z,19.97
2018-05-05T09:26:22.744Z,19.73
2018-05-05T09:27:59.126Z,19.76
2018-05-05T09:29:35.288Z,19.81
2018-05-05T09:31:11.927Z,19.87
2018-05-05T09:32:49.127Z,19.56
2018-05-05T09:34:26.112Z,19.72
2018-05-05T09:36:02.654Z,19.90
2018-05-05T09:37:39.851Z,20.21
2018-05-05T09:39:16.497Z,20.15
2018-05-05T09:40:53.539Z,20.32
2018-05-05T09:42:29.852Z,20.36
2018-05-05T09:44:07.433Z,20.67
2018-05-05T09:45:44.916Z,20.78
2018-05-05T09:47:22.957Z,20.93
2018-05-05T09:50:28.828Z,20.87
2018-05-05T09:52:06.446Z,21.01
2018-05-05T09:53:42.939Z,21.17
2018-05-05T09:55:19.429Z,20.91
2018-05-05T09:56:55.902Z,20.95
2018-05-05T09:58:32.667Z,20.77
2018-05-05T10:00:09.372Z,20.43
2018-05-05T10:01:46.575Z,20.48
2018-05-05T10:03:22.982Z,20.78
2018-05-05T10:04:59.657Z,20.50
2018-05-05T10:06:37.032Z,20.35
2018-05-05T10:08:13.895Z,20.63
2018-05-05T10:09:50.372Z,20.81
2018-05-05T10:11:27.210Z,20.92
2018-05-05T10:13:03.598Z,20.53
2018-05-05T10:14:40.002Z,20.07
2018-05-05T10:16:16.797Z,20.29
2018-05-05T10:17:53.858Z,20.67
2018-05-05T10:19:30.201Z,20.73
2018-05-05T10:21:06.574Z,20.82
2018-05-05T10:22:44.609Z,20.94
2018-05-05T10:24:21.634Z,21.13
2018-05-05T10:25:57.999Z,21.10
2018-05-05T10:27:34.323Z,21.33
2018-05-05T10:29:11.045Z,21.43
2018-05-05T10:30:48.155Z,21.27
2018-05-05T10:32:24.635Z,21.02
2018-05-05T10:34:01.036Z,21.17
2018-05-05T10:35:37.703Z,21.14
2018-05-05T10:37:14.177Z,20.77
2018-05-05T10:38:50.638Z,20.54
2018-05-05T10:40:27.040Z,20.68
2018-05-05T10:42:04.434Z,20.97
2018-05-05T10:43:40.965Z,21.35
2018-05-05T10:45:17.900Z,21.76
2018-05-05T10:46:59.617Z,21.50
2018-05-05T10:48:37.369Z,21.57
2018-05-05T10:50:17.634Z,21.86
2018-05-05T10:51:56.131Z,21.63
2018-05-05T10:53:32.605Z,21.86
2018-05-05T10:55:09.324Z,21.92
2018-05-05T10:56:47.067Z,21.91
2018-05-05T10:58:23.824Z,21.96
2018-05-05T11:00:00.681Z,21.81
2018-05-05T11:01:37.294Z,21.28
2018-05-05T11:03:13.819Z,21.10
2018-05-05T11:04:50.790Z,21.17
2018-05-05T11:06:27.125Z,21.38
2018-05-05T11:08:04.507Z,21.56
2018-05-05T11:09:42.668Z,21.88
2018-05-05T11:11:19.808Z,21.71
2018-05-05T11:12:56.867Z,21.81
2018-05-05T11:14:33.885Z,22.09
2018-05-05T11:16:15.694Z,21.87
2018-05-05T11:17:52.069Z,21.54
2018-05-05T11:19:28.377Z,21.37
2018-05-05T11:21:05.158Z,21.24
2018-05-05T11:22:41.618Z,21.38
2018-05-05T11:24:24.215Z,21.38
2018-05-05T11:26:00.923Z,21.06
2018-05-05T11:27:38.957Z,21.11
2018-05-05T11:29:19.632Z,21.21
2018-05-05T11:30:56.730Z,21.73
2018-05-05T11:32:33.468Z,22.02
2018-05-05T11:34:10.093Z,21.89
2018-05-05T11:35:46.642Z,21.97
2018-05-05T11:37:23.379Z,22.09
2018-05-05T11:39:00.837Z,22.19
2018-05-05T11:40:38.209Z,22.37
2018-05-05T11:42:14.673Z,22.50
2018-05-05T11:43:51.105Z,22.56
2018-05-05T11:45:30.290Z,22.63
2018-05-05T11:47:06.692Z,22.61
2018-05-05T11:48:43.237Z,22.83
2018-05-05T11:50:20.407Z,22.84
2018-05-05T11:51:57.002Z,22.69
2018-05-05T11:53:33.344Z,22.36
2018-05-05T11:55:09.945Z,22.50
2018-05-05T11:56:46.669Z,22.08
2018-05-05T11:58:22.968Z,22.41
2018-05-05T11:59:59.354Z,22.07
2018-05-05T12:01:36.043Z,22.13
2018-05-05T12:03:13.671Z,22.05
2018-05-05T12:04:50.082Z,22.13
2018-05-05T12:06:26.376Z,22.57
2018-05-05T12:08:02.740Z,22.78
2018-05-05T12:09:39.554Z,22.94
2018-05-05T12:11:16.035Z,22.80
2018-05-05T12:12:52.369Z,22.69
2018-05-05T12:14:29.776Z,22.33
2018-05-05T12:16:08.219Z,22.33
2018-05-05T12:17:46.316Z,22.31
2018-05-05T12:19:22.926Z,22.45
2018-05-05T12:21:00.434Z,22.02
2018-05-05T12:22:37.479Z,22.29
2018-05-05T12:24:14.437Z,22.33
2018-05-05T12:25:52.072Z,22.35
2018-05-05T12:27:28.399Z,22.80
2018-05-05T12:29:08.243Z,23.00
2018-05-05T12:30:46.555Z,22.91
2018-05-05T12:32:23.358Z,23.16
2018-05-05T12:34:08.431Z,22.97
2018-05-05T12:35:47.277Z,22.92
2018-05-05T12:37:25.195Z,22.57
2018-05-05T12:39:03.226Z,22.71
2018-05-05T12:40:44.231Z,22.67
2018-05-05T12:42:22.517Z,22.34
2018-05-05T12:44:03.137Z,22.48
2018-05-05T12:45:43.823Z,22.62
2018-05-05T12:47:21.009Z,22.59
2018-05-05T12:48:58.473Z,22.93
2018-05-05T12:50:35.630Z,22.60
2018-05-05T12:52:15.788Z,22.51
2018-05-05T12:53:53.810Z,22.54
2018-05-05T12:55:30.974Z,22.50
2018-05-05T12:57:09.044Z,22.88
2018-05-05T12:58:47.523Z,22.93
2018-05-05T13:00:24.517Z,22.94
2018-05-05T13:02:02.625Z,23.17
2018-05-05T13:03:41.508Z,23.13
2018-05-05T13:05:19.600Z,23.18
2018-05-05T13:06:56.448Z,23.04
2018-05-05T13:08:34.955Z,23.04
2018-05-05T13:10:13.716Z,23.45
2018-05-05T13:11:52.289Z,23.58
2018-05-05T13:13:31.894Z,23.34
2018-05-05T13:15:09.760Z,22.86
2018-05-05T13:16:48.138Z,23.08
2018-05-05T13:18:24.947Z,23.28
2018-05-05T13:20:02.106Z,23.00
2018-05-05T13:21:38.915Z,22.75
2018-05-05T13:23:15.737Z,23.17
2018-05-05T13:24:52.490Z,23.28
2018-05-05T13:26:29.454Z,23.43
2018-05-05T13:28:06.062Z,23.35
2018-05-05T13:29:42.671Z,23.52
2018-05-05T13:31:19.532Z,23.64
2018-05-05T13:32:57.896Z,23.62
2018-05-05T13:34:36.686Z,23.51
2018-05-05T13:36:13.560Z,23.52
2018-05-05T13:37:53.025Z,23.34
2018-05-05T13:39:30.583Z,23.28
2018-05-05T13:41:07.321Z,23.20
2018-05-05T13:42:44.721Z,23.25
2018-05-05T13:44:21.185Z,23.28
2018-05-05T13:45:58.238Z,23.53
2018-05-05T13:47:34.812Z,23.57
2018-05-05T13:49:12.601Z,23.60
2018-05-05T13:50:50.246Z,23.91
2018-05-05T13:52:33.577Z,23.97
2018-05-05T13:54:10.094Z,23.96
2018-05-05T13:55:46.843Z,23.85
2018-05-05T13:57:24.030Z,23.57
2018-05-05T13:59:01.854Z,23.67
2018-05-05T14:00:38.786Z,23.46
2018-05-05T14:02:15.720Z,23.20
2018-05-05T14:03:52.264Z,23.26
2018-05-05T14:05:28.972Z,23.64
2018-05-05T14:07:05.310Z,23.63
2018-05-05T14:08:41.976Z,23.66
2018-05-05T14:10:18.346Z,23.93
2018-05-05T14:11:54.922Z,23.81
2018-05-05T14:13:31.204Z,23.96
2018-05-05T14:15:07.752Z,23.87
2018-05-05T14:16:44.210Z,23.47
2018-05-05T14:18:20.898Z,23.70
2018-05-05T14:19:57.421Z,23.82
2018-05-05T14:21:33.752Z,23.86
2018-05-05T14:23:10.934Z,23.99
2018-05-05T14:24:47.712Z,23.97
2018-05-05T14:26:24.119Z,24.05
2018-05-05T14:28:00.608Z,24.28
2018-05-05T14:29:37.329Z,24.21
2018-05-05T14:31:14.277Z,23.98
2018-05-05T14:32:55.610Z,23.65
2018-05-05T14:34:32.636Z,23.35
2018-05-05T14:36:09.176Z,23.42
2018-05-05T14:37:45.986Z,23.64
2018-05-05T14:39:23.165Z,23.94
2018-05-05T14:41:00.182Z,24.15
2018-05-05T14:42:40.803Z,23.91
2018-05-05T14:44:18.612Z,23.74
2018-05-05T14:45:56.685Z,23.59
2018-05-05T14:47:33.641Z,23.74
2018-05-05T14:49:10.311Z,23.95
2018-05-05T14:50:47.574Z,23.88
2018-05-05T14:52:24.655Z,23.77
2018-05-05T14:54:01.031Z,24.04
2018-05-05T14:55:37.705Z,24.19
2018-05-05T14:57:14.451Z,24.12
2018-05-05T14:58:51.069Z,24.37
2018-05-05T15:00:27.699Z,24.41
2018-05-05T15:02:04.039Z,24.14
2018-05-05T15:03:41.146Z,23.85
2018-05-05T15:05:17.569Z,23.57
2018-05-05T15:06:54.741Z,23.61
2018-05-05T15:08:31.842Z,24.05
2018-05-05T15:10:08.113Z,24.20
2018-05-05T15:11:44.418Z,23.87
2018-05-05T15:13:20.827Z,24.02
2018-05-05T15:14:57.638Z,24.12
2018-05-05T15:16:34.048Z,24.14
2018-05-05T15:18:10.434Z,24.36
2018-05-05T15:19:46.903Z,24.54
2018-05-05T15:21:38.422Z,24.21
2018-05-05T15:23:15.268Z,24.31
2018-05-05T15:24:52.520Z,24.42
2018-05-05T15:26:28.955Z,24.51
2018-05-05T15:28:06.227Z,24.37
2018-05-05T15:29:42.623Z,24.20
2018-05-05T15:31:19.007Z,24.07
2018-05-05T15:32:56.482Z,23.71
2018-05-05T15:34:33.222Z,23.70
2018-05-05T15:36:09.618Z,23.93
2018-05-05T15:37:46.960Z,23.96
2018-05-05T15:39:23.258Z,24.15
2018-05-05T15:40:59.937Z,23.98
2018-05-05T15:42:36.283Z,24.18
2018-05-05T15:44:13.732Z,24.40
2018-05-05T15:45:50.762Z,24.05
2018-05-05T15:47:28.164Z,24.10
2018-05-05T15:49:06.305Z,24.25
2018-05-05T15:50:42.782Z,24.29
2018-05-05T15:52:19.083Z,24.16
2018-05-05T15:53:55.580Z,24.19
2018-05-05T15:55:33.629Z,24.12
2018-05-05T15:57:11.008Z,24.27
2018-05-05T15:58:48.184Z,24.42
2018-05-05T16:00:25.474Z,24.17
2018-05-05T16:02:04.294Z,24.28
2018-05-05T16:03:47.201Z,24.22
2018-05-05T16:05:23.869Z,24.35
2018-05-05T16:07:00.430Z,24.13
2018-05-05T16:08:36.979Z,23.97
2018-05-05T16:10:14.263Z,24.15
2018-05-05T16:11:50.986Z,24.48
2018-05-05T16:13:28.159Z,24.35
2018-05-05T16:15:06.565Z,24.30
2018-05-05T16:16:43.091Z,24.17
2018-05-05T16:18:19.399Z,23.97
2018-05-05T16:19:56.158Z,23.82
2018-05-05T16:21:33.287Z,23.92
2018-05-05T16:23:10.149Z,23.91
2018-05-05T16:24:46.481Z,23.95
2018-05-05T16:26:24.469Z,24.04
2018-05-05T16:28:00.737Z,24.05
2018-05-05T16:29:37.542Z,23.98
2018-05-05T16:31:13.953Z,23.99
2018-05-05T16:32:50.321Z,23.71
2018-05-05T16:36:29.475Z,23.70
2018-05-05T16:38:06.738Z,23.87
2018-05-05T16:39:47.522Z,24.05
2018-05-05T16:41:28.561Z,23.96
2018-05-05T16:43:08.402Z,24.04
2018-05-05T16:44:46.886Z,23.93
2018-05-05T16:46:30.686Z,23.90
2018-05-05T16:48:10.020Z,23.88
2018-05-05T16:49:46.344Z,24.02
2018-05-05T16:51:22.594Z,24.03
2018-05-05T16:52:59.025Z,24.11
2018-05-05T16:54:35.849Z,24.22
2018-05-05T16:56:12.231Z,24.23
2018-05-05T16:57:49.282Z,24.16
2018-05-05T16:59:25.814Z,24.15
2018-05-05T17:01:04.067Z,24.29
2018-05-05T17:02:40.573Z,24.22
2018-05-05T17:04:16.986Z,24.05
2018-05-05T17:05:53.514Z,23.47
2018-05-05T17:07:29.965Z,23.30
2018-05-05T17:09:06.951Z,23.59
2018-05-05T17:10:44.113Z,23.47
2018-05-05T17:12:21.764Z,23.28
2018-05-05T17:13:58.695Z,23.46
2018-05-05T17:15:35.149Z,23.57
2018-05-05T17:17:11.567Z,23.77
2018-05-05T17:18:48.236Z,23.80
2018-05-05T17:20:24.869Z,23.76
2018-05-05T17:22:01.360Z,23.55
2018-05-05T17:23:37.724Z,23.36
2018-05-05T17:25:14.050Z,23.19
2018-05-05T17:26:51.346Z,23.13
2018-05-05T17:28:27.776Z,23.51
2018-05-05T17:30:06.447Z,23.57
2018-05-05T17:31:43.221Z,23.71
2018-05-05T17:33:19.594Z,23.60
2018-05-05T17:34:56.124Z,23.60
2018-05-05T17:36:32.936Z,23.59
2018-05-05T17:38:09.341Z,23.84
2018-05-05T17:39:46.414Z,23.79
2018-05-05T17:41:23.538Z,23.72
2018-05-05T17:43:00.539Z,23.78
2018-05-05T17:44:37.101Z,23.30
2018-05-05T17:46:13.772Z,23.23
2018-05-05T17:47:50.165Z,23.31
2018-05-05T17:49:26.505Z,23.25
2018-05-05T17:51:02.969Z,23.36
2018-05-05T17:52:40.376Z,23.04
2018-05-05T17:54:17.096Z,22.84
2018-05-05T17:55:53.965Z,22.77
2018-05-05T17:57:30.444Z,22.82
2018-05-05T17:59:06.861Z,22.96
2018-05-05T18:00:43.643Z,22.78
2018-05-05T18:02:20.068Z,22.66
2018-05-05T18:03:56.634Z,22.70
2018-05-05T18:05:33.161Z,22.91
2018-05-05T18:07:09.976Z,23.04
2018-05-05T18:08:46.487Z,22.90
2018-05-05T18:10:22.966Z,22.84
2018-05-05T18:11:59.626Z,23.10
2018-05-05T18:13:36.730Z,22.89
2018-05-05T18:15:15.324Z,22.98
2018-05-05T18:16:53.508Z,22.92
2018-05-05T18:18:30.445Z,22.84
2018-05-05T18:20:08.043Z,22.48
2018-05-05T18:21:44.474Z,22.58
2018-05-05T18:23:21.001Z,22.60
2018-05-05T18:24:58.844Z,22.69
2018-05-05T18:26:35.354Z,22.63
2018-05-05T18:28:11.818Z,22.58
2018-05-05T18:29:48.318Z,22.46
2018-05-05T18:31:25.861Z,22.60
2018-05-05T18:33:02.548Z,22.55
2018-05-05T18:34:39.603Z,22.75
2018-05-05T18:36:16.751Z,22.63
2018-05-05T18:37:53.225Z,22.54
2018-05-05T18:39:30.921Z,22.59
2018-05-05T18:41:08.116Z,22.57
2018-05-05T18:42:45.332Z,22.42
2018-05-05T18:44:22.190Z,22.03
2018-05-05T18:46:00.993Z,22.32
2018-05-05T18:47:37.727Z,22.26
2018-05-05T18:49:15.100Z,22.24
2018-05-05T18:50:52.054Z,22.49
2018-05-05T18:52:28.435Z,22.29
2018-05-05T18:54:04.877Z,21.91
2018-05-05T18:57:16.522Z,21.72
2018-05-05T18:58:53.617Z,21.60
2018-05-05T19:00:30.194Z,21.53
2018-05-05T19:02:07.432Z,21.51
2018-05-05T19:03:44.067Z,21.88
2018-05-05T19:05:20.449Z,22.10
2018-05-05T19:06:57.653Z,21.89
2018-05-05T19:08:34.013Z,21.52
2018-05-05T19:10:10.718Z,21.30
2018-05-05T19:11:47.001Z,21.52
2018-05-05T19:13:23.375Z,21.64
2018-05-05T19:14:59.656Z,21.60
2018-05-05T19:16:37.476Z,21.91
2018-05-05T19:18:14.257Z,22.03
2018-05-05T19:19:51.357Z,21.55
2018-05-05T19:21:29.444Z,21.47
2018-05-05T19:23:08.512Z,21.56
2018-05-05T19:24:44.900Z,21.27
2018-05-05T19:26:21.252Z,21.20
2018-05-05T19:27:57.582Z,21.18
2018-05-05T19:29:34.330Z,21.18
2018-05-05T19:31:12.239Z,21.06
2018-05-05T19:32:49.125Z,20.99
2018-05-05T19:34:26.265Z,21.23
2018-05-05T19:36:03.370Z,21.09
2018-05-05T19:37:39.768Z,21.03
2018-05-05T19:39:16.250Z,21.15
2018-05-05T19:40:52.968Z,21.15
2018-05-05T19:42:30.009Z,21.24
2018-05-05T19:44:06.808Z,21.10
2018-05-05T19:45:44.348Z,21.07
2018-05-05T19:47:21.194Z,20.95
2018-05-05T19:50:35.980Z,20.92
2018-05-05T19:52:12.325Z,21.03
2018-05-05T19:53:49.019Z,21.06
2018-05-05T19:55:25.377Z,21.26
2018-05-05T19:57:01.797Z,21.48
2018-05-05T19:58:38.285Z,20.99
2018-05-05T20:00:16.826Z,20.68
2018-05-05T20:01:53.341Z,20.76
2018-05-05T20:03:31.131Z,20.61
2018-05-05T20:05:07.877Z,20.69
2018-05-05T20:06:44.833Z,20.70
2018-05-05T20:08:21.601Z,20.58
2018-05-05T20:09:57.989Z,20.81
2018-05-05T20:11:34.335Z,20.58
2018-05-05T20:13:11.281Z,20.40
2018-05-05T20:14:47.715Z,20.68
2018-05-05T20:16:24.375Z,20.67
2018-05-05T20:18:04.522Z,20.51
2018-05-05T20:19:41.632Z,20.45
2018-05-05T20:21:18.051Z,20.19
2018-05-05T20:22:54.457Z,20.16
2018-05-05T20:24:31.822Z,20.06
2018-05-05T20:26:08.573Z,20.04
2018-05-05T20:27:44.894Z,20.33
2018-05-05T20:29:22.284Z,20.26
2018-05-05T20:30:58.962Z,20.07
2018-05-05T20:32:36.762Z,20.08
2018-05-05T20:34:13.220Z,20.18
2018-05-05T20:35:49.531Z,20.26
2018-05-05T20:37:26.008Z,20.20
2018-05-05T20:39:03.936Z,20.06
2018-05-05T20:40:41.161Z,19.84
2018-05-05T20:42:18.018Z,19.75
2018-05-05T20:43:54.413Z,19.83
2018-05-05T20:45:32.917Z,19.89
2018-05-05T20:47:09.308Z,19.80
2018-05-05T20:48:46.491Z,19.69
2018-05-05T20:50:23.337Z,19.82
2018-05-05T20:52:01.759Z,20.06
2018-05-05T20:53:40.220Z,19.66
2018-05-05T20:55:16.604Z,19.75
2018-05-05T20:56:54.766Z,19.48
2018-05-05T20:58:31.816Z,19.54
2018-05-05T21:00:08.609Z,19.58